Portada
METAR-TAF:

METAR-TAF

Aeropuertos :

Aeropuerto de Tánger-Ibn Battuta

Tánger, Marruecos

latitud: 35-44N, longitud: 005-54W, altitud: 19 m

Observación

El informe se hizo hace 10 minutos, a las 15:30 UTC
Viento 12 kt del noreste
Temperatura 26°C
Humedad 61%
Presión 1013 hPa
Visibilidad 10 km o más
Escasas nubes a una altura de 1600 ft, Cumulonimbus.

METAR: GMTT 171530Z 04012KT 9999 FEW016CB 26/18 Q1013 NOSIG

Hora: 16:40 (15:40 UTC)

Pronóstico

El informe se hizo hace 4 horas y 40 minutos, a las 11:00 UTC
Pronóstico válido del 17 a las 12 UTC al 18 a las 18 UTC
Viento 16 kt del norte
Visibilidad 10 km o más
Escasas nubes a una altura de 1600 ft
Evolucionando progresivamente
del 17 a las 16 UTC al 17 a las 20 UTC
Viento 16 kt del noreste
Evolucionando progresivamente
del 18 a las 06 UTC al 18 a las 10 UTC
Viento 26 kt del este

TAF: GMTT 171100Z 1712/1818 35016KT 9999 FEW016 BECMG 1716/1720 05016KT BECMG 1806/1810 10026KT

Observaciones y pronósticos meteorológicos de más de 4000 aeropuertos (mensajes METAR y TAF).

Los puntos amarillos y rojos representan las estaciones disponibles.

Ponga el ratón en el punto deseado para ver el nombre de la estación.

Haga clic para ver las observaciones y los pronósticos meteorológicos.

Para cambiar el mapa : haga clic en los botones verdes con una cruz de color negro para hacer un zoom, en el botón verde con un guión para alejar o en las flechas verdes para mapas adyacentes.


METAR-TAF: